sensor_id;sensor_type;location;lat;lon;timestamp;P1;durP1;ratioP1;P2;durP2;ratioP2
70247;SDS011;57641;51.416;5.506;2022-09-24T00:00:26;17.30;;;10.80;;
70247;SDS011;57641;51.416;5.506;2022-09-24T00:02:51;17.48;;;10.38;;
70247;SDS011;57641;51.416;5.506;2022-09-24T00:05:16;15.60;;;9.90;;
70247;SDS011;57641;51.416;5.506;2022-09-24T00:07:42;17.20;;;10.20;;
70247;SDS011;57641;51.416;5.506;2022-09-24T00:10:07;16.05;;;9.98;;
70247;SDS011;57641;51.416;5.506;2022-09-24T00:12:33;20.08;;;10.55;;
70247;SDS011;57641;51.416;5.506;2022-09-24T00:14:59;17.08;;;9.95;;
70247;SDS011;57641;51.416;5.506;2022-09-24T00:17:24;19.15;;;10.15;;
70247;SDS011;57641;51.416;5.506;2022-09-24T00:19:50;18.00;;;10.18;;
70247;SDS011;57641;51.416;5.506;2022-09-24T00:22:15;16.60;;;9.75;;
70247;SDS011;57641;51.416;5.506;2022-09-24T00:24:40;17.70;;;10.50;;
70247;SDS011;57641;51.416;5.506;2022-09-24T00:27:26;16.23;;;10.43;;
70247;SDS011;57641;51.416;5.506;2022-09-24T00:29:51;16.20;;;9.70;;
70247;SDS011;57641;51.416;5.506;2022-09-24T00:32:16;18.70;;;10.63;;
70247;SDS011;57641;51.416;5.506;2022-09-24T00:34:42;16.42;;;10.25;;
70247;SDS011;57641;51.416;5.506;2022-09-24T00:37:07;18.75;;;10.82;;
70247;SDS011;57641;51.416;5.506;2022-09-24T00:39:33;17.27;;;10.02;;
70247;SDS011;57641;51.416;5.506;2022-09-24T00:41:58;17.55;;;9.98;;
70247;SDS011;57641;51.416;5.506;2022-09-24T00:44:57;16.80;;;9.75;;
70247;SDS011;57641;51.416;5.506;2022-09-24T00:50:02;17.05;;;9.27;;
70247;SDS011;57641;51.416;5.506;2022-09-24T00:52:37;15.82;;;9.35;;
70247;SDS011;57641;51.416;5.506;2022-09-24T00:55:08;18.63;;;10.57;;
70247;SDS011;57641;51.416;5.506;2022-09-24T00:57:36;16.83;;;10.20;;
70247;SDS011;57641;51.416;5.506;2022-09-24T01:00:03;17.33;;;10.32;;
70247;SDS011;57641;51.416;5.506;2022-09-24T01:02:31;17.83;;;10.32;;
70247;SDS011;57641;51.416;5.506;2022-09-24T01:05:00;16.85;;;9.82;;
70247;SDS011;57641;51.416;5.506;2022-09-24T01:07:26;17.95;;;10.07;;
70247;SDS011;57641;51.416;5.506;2022-09-24T01:09:51;18.80;;;10.23;;
70247;SDS011;57641;51.416;5.506;2022-09-24T01:20:12;17.13;;;10.38;;
70247;SDS011;57641;51.416;5.506;2022-09-24T01:30:35;18.30;;;10.55;;
70247;SDS011;57641;51.416;5.506;2022-09-24T01:33:03;19.23;;;10.32;;
70247;SDS011;57641;51.416;5.506;2022-09-24T01:35:36;19.10;;;10.10;;
70247;SDS011;57641;51.416;5.506;2022-09-24T01:38:03;18.65;;;10.55;;
70247;SDS011;57641;51.416;5.506;2022-09-24T01:40:34;19.65;;;10.75;;
70247;SDS011;57641;51.416;5.506;2022-09-24T01:43:02;22.08;;;11.23;;
70247;SDS011;57641;51.416;5.506;2022-09-24T01:45:31;17.85;;;10.48;;
70247;SDS011;57641;51.416;5.506;2022-09-24T01:47:59;19.52;;;10.77;;
70247;SDS011;57641;51.416;5.506;2022-09-24T01:50:25;19.83;;;10.88;;
70247;SDS011;57641;51.416;5.506;2022-09-24T01:52:57;17.60;;;10.30;;
70247;SDS011;57641;51.416;5.506;2022-09-24T01:55:29;17.50;;;9.93;;
70247;SDS011;57641;51.416;5.506;2022-09-24T01:58:37;19.65;;;12.02;;
70247;SDS011;57641;51.416;5.506;2022-09-24T02:01:02;22.90;;;11.32;;
70247;SDS011;57641;51.416;5.506;2022-09-24T02:03:35;18.88;;;10.93;;
70247;SDS011;57641;51.416;5.506;2022-09-24T02:06:09;18.92;;;10.70;;
70247;SDS011;57641;51.416;5.506;2022-09-24T02:08:40;20.00;;;11.32;;
70247;SDS011;57641;51.416;5.506;2022-09-24T02:11:13;21.20;;;12.10;;
70247;SDS011;57641;51.416;5.506;2022-09-24T02:14:05;22.80;;;12.50;;
70247;SDS011;57641;51.416;5.506;2022-09-24T02:16:37;23.20;;;12.88;;
70247;SDS011;57641;51.416;5.506;2022-09-24T02:19:10;20.30;;;11.35;;
70247;SDS011;57641;51.416;5.506;2022-09-24T02:21:39;26.25;;;12.57;;
70247;SDS011;57641;51.416;5.506;2022-09-24T02:24:09;21.95;;;11.88;;
70247;SDS011;57641;51.416;5.506;2022-09-24T02:26:40;21.45;;;12.70;;
70247;SDS011;57641;51.416;5.506;2022-09-24T02:29:06;24.20;;;13.23;;
70247;SDS011;57641;51.416;5.506;2022-09-24T02:31:33;21.98;;;13.07;;
70247;SDS011;57641;51.416;5.506;2022-09-24T02:34:03;20.92;;;12.15;;
70247;SDS011;57641;51.416;5.506;2022-09-24T02:36:45;22.35;;;12.98;;
70247;SDS011;57641;51.416;5.506;2022-09-24T02:39:12;20.25;;;12.85;;
70247;SDS011;57641;51.416;5.506;2022-09-24T02:41:37;27.75;;;15.90;;
70247;SDS011;57641;51.416;5.506;2022-09-24T02:44:06;25.17;;;14.02;;
70247;SDS011;57641;51.416;5.506;2022-09-24T02:46:31;27.35;;;15.13;;
70247;SDS011;57641;51.416;5.506;2022-09-24T02:48:57;27.33;;;15.02;;
70247;SDS011;57641;51.416;5.506;2022-09-24T02:51:22;25.92;;;14.70;;
70247;SDS011;57641;51.416;5.506;2022-09-24T02:53:47;26.70;;;15.20;;
70247;SDS011;57641;51.416;5.506;2022-09-24T02:56:13;28.85;;;16.35;;
70247;SDS011;57641;51.416;5.506;2022-09-24T02:58:38;28.17;;;15.85;;
70247;SDS011;57641;51.416;5.506;2022-09-24T03:01:05;27.27;;;15.05;;
70247;SDS011;57641;51.416;5.506;2022-09-24T03:03:31;26.65;;;15.25;;
70247;SDS011;57641;51.416;5.506;2022-09-24T03:05:56;32.58;;;17.02;;
70247;SDS011;57641;51.416;5.506;2022-09-24T03:08:22;26.33;;;15.50;;
70247;SDS011;57641;51.416;5.506;2022-09-24T03:10:48;31.92;;;16.48;;
70247;SDS011;57641;51.416;5.506;2022-09-24T03:13:15;29.02;;;16.10;;
70247;SDS011;57641;51.416;5.506;2022-09-24T03:15:43;31.88;;;17.15;;
70247;SDS011;57641;51.416;5.506;2022-09-24T03:18:09;28.92;;;15.95;;
70247;SDS011;57641;51.416;5.506;2022-09-24T03:20:35;31.35;;;17.38;;
70247;SDS011;57641;51.416;5.506;2022-09-24T03:23:00;29.98;;;16.85;;
70247;SDS011;57641;51.416;5.506;2022-09-24T03:25:25;31.55;;;16.90;;
70247;SDS011;57641;51.416;5.506;2022-09-24T03:27:51;31.05;;;16.65;;
70247;SDS011;57641;51.416;5.506;2022-09-24T03:30:16;29.90;;;17.00;;
70247;SDS011;57641;51.416;5.506;2022-09-24T03:33:01;30.65;;;16.40;;
70247;SDS011;57641;51.416;5.506;2022-09-24T03:35:26;32.78;;;17.25;;
70247;SDS011;57641;51.416;5.506;2022-09-24T03:37:51;33.15;;;17.73;;
70247;SDS011;57641;51.416;5.506;2022-09-24T03:40:17;30.20;;;16.65;;
70247;SDS011;57641;51.416;5.506;2022-09-24T03:42:42;33.92;;;17.92;;
70247;SDS011;57641;51.416;5.506;2022-09-24T03:45:08;32.10;;;17.70;;
70247;SDS011;57641;51.416;5.506;2022-09-24T03:47:34;34.00;;;18.08;;
70247;SDS011;57641;51.416;5.506;2022-09-24T03:50:00;33.88;;;17.67;;
70247;SDS011;57641;51.416;5.506;2022-09-24T03:52:26;31.80;;;17.17;;
70247;SDS011;57641;51.416;5.506;2022-09-24T03:54:52;29.58;;;16.55;;
70247;SDS011;57641;51.416;5.506;2022-09-24T03:57:18;34.85;;;17.52;;
70247;SDS011;57641;51.416;5.506;2022-09-24T03:59:44;33.97;;;17.58;;
70247;SDS011;57641;51.416;5.506;2022-09-24T04:02:10;30.35;;;17.08;;
70247;SDS011;57641;51.416;5.506;2022-09-24T04:04:36;31.90;;;16.45;;
70247;SDS011;57641;51.416;5.506;2022-09-24T04:07:02;29.17;;;17.67;;
70247;SDS011;57641;51.416;5.506;2022-09-24T04:09:28;29.83;;;16.88;;
70247;SDS011;57641;51.416;5.506;2022-09-24T04:11:54;29.70;;;15.65;;
70247;SDS011;57641;51.416;5.506;2022-09-24T04:14:20;29.20;;;16.88;;
70247;SDS011;57641;51.416;5.506;2022-09-24T04:16:45;31.60;;;17.58;;
70247;SDS011;57641;51.416;5.506;2022-09-24T04:19:14;28.77;;;16.05;;
70247;SDS011;57641;51.416;5.506;2022-09-24T04:21:43;29.48;;;15.70;;
70247;SDS011;57641;51.416;5.506;2022-09-24T04:24:09;28.60;;;15.68;;
70247;SDS011;57641;51.416;5.506;2022-09-24T04:26:35;27.08;;;15.57;;
70247;SDS011;57641;51.416;5.506;2022-09-24T04:29:00;28.80;;;16.42;;
70247;SDS011;57641;51.416;5.506;2022-09-24T04:31:26;29.10;;;17.00;;
70247;SDS011;57641;51.416;5.506;2022-09-24T04:33:51;32.15;;;16.83;;
70247;SDS011;57641;51.416;5.506;2022-09-24T04:36:17;29.52;;;15.48;;
70247;SDS011;57641;51.416;5.506;2022-09-24T04:38:43;30.88;;;16.33;;
70247;SDS011;57641;51.416;5.506;2022-09-24T04:41:11;31.52;;;17.25;;
70247;SDS011;57641;51.416;5.506;2022-09-24T04:43:37;28.23;;;14.68;;
70247;SDS011;57641;51.416;5.506;2022-09-24T04:46:03;25.85;;;14.85;;
70247;SDS011;57641;51.416;5.506;2022-09-24T04:48:30;23.58;;;14.73;;
70247;SDS011;57641;51.416;5.506;2022-09-24T04:50:56;29.30;;;15.90;;
70247;SDS011;57641;51.416;5.506;2022-09-24T04:53:22;29.30;;;16.95;;
70247;SDS011;57641;51.416;5.506;2022-09-24T04:55:49;27.00;;;15.50;;
70247;SDS011;57641;51.416;5.506;2022-09-24T04:58:14;32.45;;;16.92;;
70247;SDS011;57641;51.416;5.506;2022-09-24T05:00:40;24.73;;;14.48;;
70247;SDS011;57641;51.416;5.506;2022-09-24T05:03:07;26.63;;;15.27;;
70247;SDS011;57641;51.416;5.506;2022-09-24T05:05:33;26.85;;;14.00;;
70247;SDS011;57641;51.416;5.506;2022-09-24T05:08:00;25.92;;;14.55;;
70247;SDS011;57641;51.416;5.506;2022-09-24T05:10:27;28.85;;;15.75;;
70247;SDS011;57641;51.416;5.506;2022-09-24T05:12:55;25.10;;;14.02;;
70247;SDS011;57641;51.416;5.506;2022-09-24T05:15:21;27.65;;;15.35;;
70247;SDS011;57641;51.416;5.506;2022-09-24T05:17:46;27.40;;;14.80;;
70247;SDS011;57641;51.416;5.506;2022-09-24T05:20:12;22.33;;;13.05;;
70247;SDS011;57641;51.416;5.506;2022-09-24T05:22:39;29.17;;;14.43;;
70247;SDS011;57641;51.416;5.506;2022-09-24T05:25:06;22.67;;;12.70;;
70247;SDS011;57641;51.416;5.506;2022-09-24T05:27:32;23.08;;;12.82;;
70247;SDS011;57641;51.416;5.506;2022-09-24T05:29:58;25.27;;;13.77;;
70247;SDS011;57641;51.416;5.506;2022-09-24T05:32:25;22.00;;;12.95;;
70247;SDS011;57641;51.416;5.506;2022-09-24T05:34:51;23.23;;;13.20;;
70247;SDS011;57641;51.416;5.506;2022-09-24T05:37:18;24.65;;;13.32;;
70247;SDS011;57641;51.416;5.506;2022-09-24T05:39:44;23.38;;;13.27;;
70247;SDS011;57641;51.416;5.506;2022-09-24T05:42:09;25.08;;;14.23;;
70247;SDS011;57641;51.416;5.506;2022-09-24T05:44:38;24.48;;;13.82;;
70247;SDS011;57641;51.416;5.506;2022-09-24T05:47:04;25.48;;;13.95;;
70247;SDS011;57641;51.416;5.506;2022-09-24T05:49:30;25.92;;;14.68;;
70247;SDS011;57641;51.416;5.506;2022-09-24T05:51:56;23.95;;;14.00;;
70247;SDS011;57641;51.416;5.506;2022-09-24T05:54:21;28.95;;;15.65;;
70247;SDS011;57641;51.416;5.506;2022-09-24T05:56:47;29.13;;;15.15;;
70247;SDS011;57641;51.416;5.506;2022-09-24T05:59:13;29.00;;;14.40;;
70247;SDS011;57641;51.416;5.506;2022-09-24T06:01:38;29.67;;;15.95;;
70247;SDS011;57641;51.416;5.506;2022-09-24T06:04:04;29.27;;;16.40;;
70247;SDS011;57641;51.416;5.506;2022-09-24T06:06:30;25.85;;;14.50;;
70247;SDS011;57641;51.416;5.506;2022-09-24T06:08:55;28.17;;;15.40;;
70247;SDS011;57641;51.416;5.506;2022-09-24T06:11:21;27.60;;;15.18;;
70247;SDS011;57641;51.416;5.506;2022-09-24T06:13:50;26.77;;;15.02;;
70247;SDS011;57641;51.416;5.506;2022-09-24T06:16:15;30.60;;;15.85;;
70247;SDS011;57641;51.416;5.506;2022-09-24T06:18:42;30.60;;;16.55;;
70247;SDS011;57641;51.416;5.506;2022-09-24T06:21:12;29.10;;;16.13;;
70247;SDS011;57641;51.416;5.506;2022-09-24T06:23:39;31.70;;;16.55;;
70247;SDS011;57641;51.416;5.506;2022-09-24T06:26:06;36.65;;;18.42;;
70247;SDS011;57641;51.416;5.506;2022-09-24T06:28:35;27.17;;;16.17;;
70247;SDS011;57641;51.416;5.506;2022-09-24T06:31:02;27.77;;;15.52;;
70247;SDS011;57641;51.416;5.506;2022-09-24T06:33:28;28.67;;;15.68;;
70247;SDS011;57641;51.416;5.506;2022-09-24T06:35:57;30.65;;;15.85;;
70247;SDS011;57641;51.416;5.506;2022-09-24T06:38:24;29.10;;;15.50;;
70247;SDS011;57641;51.416;5.506;2022-09-24T06:40:50;28.67;;;16.17;;
70247;SDS011;57641;51.416;5.506;2022-09-24T06:43:16;31.63;;;17.90;;
70247;SDS011;57641;51.416;5.506;2022-09-24T06:45:42;35.85;;;18.70;;
70247;SDS011;57641;51.416;5.506;2022-09-24T06:48:09;37.17;;;18.85;;
70247;SDS011;57641;51.416;5.506;2022-09-24T06:50:38;31.58;;;17.80;;
70247;SDS011;57641;51.416;5.506;2022-09-24T06:53:08;31.63;;;17.85;;
70247;SDS011;57641;51.416;5.506;2022-09-24T06:55:36;35.33;;;18.48;;
70247;SDS011;57641;51.416;5.506;2022-09-24T06:58:07;33.05;;;17.30;;
70247;SDS011;57641;51.416;5.506;2022-09-24T07:00:35;29.52;;;16.73;;
70247;SDS011;57641;51.416;5.506;2022-09-24T07:03:03;33.35;;;16.77;;
70247;SDS011;57641;51.416;5.506;2022-09-24T07:05:29;31.60;;;16.77;;
70247;SDS011;57641;51.416;5.506;2022-09-24T07:07:54;32.00;;;17.13;;
70247;SDS011;57641;51.416;5.506;2022-09-24T07:10:20;35.30;;;17.83;;
70247;SDS011;57641;51.416;5.506;2022-09-24T07:12:48;36.95;;;18.58;;
70247;SDS011;57641;51.416;5.506;2022-09-24T07:15:14;33.10;;;17.20;;
70247;SDS011;57641;51.416;5.506;2022-09-24T07:17:39;32.63;;;17.08;;
70247;SDS011;57641;51.416;5.506;2022-09-24T07:20:05;29.27;;;16.45;;
70247;SDS011;57641;51.416;5.506;2022-09-24T07:22:31;32.13;;;16.40;;
70247;SDS011;57641;51.416;5.506;2022-09-24T07:25:01;34.35;;;18.33;;
70247;SDS011;57641;51.416;5.506;2022-09-24T07:27:27;30.02;;;16.50;;
70247;SDS011;57641;51.416;5.506;2022-09-24T07:29:52;31.63;;;17.40;;
70247;SDS011;57641;51.416;5.506;2022-09-24T07:32:18;33.03;;;17.15;;
70247;SDS011;57641;51.416;5.506;2022-09-24T07:34:44;32.40;;;16.88;;
70247;SDS011;57641;51.416;5.506;2022-09-24T07:37:09;26.15;;;15.07;;
70247;SDS011;57641;51.416;5.506;2022-09-24T07:39:35;34.88;;;16.75;;
70247;SDS011;57641;51.416;5.506;2022-09-24T07:42:01;26.60;;;15.50;;
70247;SDS011;57641;51.416;5.506;2022-09-24T07:44:26;27.90;;;15.98;;
70247;SDS011;57641;51.416;5.506;2022-09-24T07:46:53;35.75;;;18.80;;
70247;SDS011;57641;51.416;5.506;2022-09-24T07:49:19;31.23;;;15.82;;
70247;SDS011;57641;51.416;5.506;2022-09-24T07:51:45;25.17;;;15.77;;
70247;SDS011;57641;51.416;5.506;2022-09-24T07:54:11;28.35;;;15.13;;
70247;SDS011;57641;51.416;5.506;2022-09-24T07:56:37;27.90;;;15.63;;
70247;SDS011;57641;51.416;5.506;2022-09-24T07:59:03;28.20;;;16.10;;
70247;SDS011;57641;51.416;5.506;2022-09-24T08:01:30;31.70;;;17.35;;
70247;SDS011;57641;51.416;5.506;2022-09-24T08:03:57;26.52;;;14.30;;
70247;SDS011;57641;51.416;5.506;2022-09-24T08:06:23;24.10;;;13.93;;
70247;SDS011;57641;51.416;5.506;2022-09-24T08:08:49;24.88;;;13.88;;
70247;SDS011;57641;51.416;5.506;2022-09-24T08:11:17;30.55;;;15.40;;
70247;SDS011;57641;51.416;5.506;2022-09-24T08:13:43;28.08;;;15.45;;
70247;SDS011;57641;51.416;5.506;2022-09-24T08:16:09;26.30;;;14.30;;
70247;SDS011;57641;51.416;5.506;2022-09-24T08:18:36;27.45;;;15.15;;
70247;SDS011;57641;51.416;5.506;2022-09-24T08:21:05;28.80;;;15.75;;
70247;SDS011;57641;51.416;5.506;2022-09-24T08:23:33;26.33;;;14.40;;
70247;SDS011;57641;51.416;5.506;2022-09-24T08:26:00;23.25;;;14.15;;
70247;SDS011;57641;51.416;5.506;2022-09-24T08:28:26;26.52;;;14.75;;
70247;SDS011;57641;51.416;5.506;2022-09-24T08:30:56;31.35;;;16.83;;
70247;SDS011;57641;51.416;5.506;2022-09-24T08:33:25;24.17;;;13.85;;
70247;SDS011;57641;51.416;5.506;2022-09-24T08:35:51;29.73;;;15.02;;
70247;SDS011;57641;51.416;5.506;2022-09-24T08:38:17;30.58;;;14.48;;
70247;SDS011;57641;51.416;5.506;2022-09-24T08:40:47;26.33;;;13.60;;
70247;SDS011;57641;51.416;5.506;2022-09-24T08:46:12;28.40;;;15.57;;
70247;SDS011;57641;51.416;5.506;2022-09-24T08:49:05;26.30;;;14.20;;
70247;SDS011;57641;51.416;5.506;2022-09-24T08:52:22;28.63;;;14.35;;
70247;SDS011;57641;51.416;5.506;2022-09-24T08:54:26;21.40;;;11.68;;
70247;SDS011;57641;51.416;5.506;2022-09-24T08:56:54;28.42;;;14.27;;
70247;SDS011;57641;51.416;5.506;2022-09-24T08:59:31;32.05;;;14.95;;
70247;SDS011;57641;51.416;5.506;2022-09-24T09:07:47;30.00;;;15.43;;
70247;SDS011;57641;51.416;5.506;2022-09-24T09:10:22;27.85;;;14.10;;
70247;SDS011;57641;51.416;5.506;2022-09-24T09:12:54;27.17;;;12.85;;
70247;SDS011;57641;51.416;5.506;2022-09-24T09:15:27;27.48;;;14.45;;
70247;SDS011;57641;51.416;5.506;2022-09-24T09:17:57;27.33;;;14.32;;
70247;SDS011;57641;51.416;5.506;2022-09-24T09:20:28;23.67;;;12.68;;
70247;SDS011;57641;51.416;5.506;2022-09-24T09:22:58;26.80;;;14.15;;
70247;SDS011;57641;51.416;5.506;2022-09-24T09:25:32;26.17;;;14.85;;
70247;SDS011;57641;51.416;5.506;2022-09-24T09:28:01;22.65;;;13.52;;
70247;SDS011;57641;51.416;5.506;2022-09-24T09:30:41;30.88;;;14.98;;
70247;SDS011;57641;51.416;5.506;2022-09-24T09:33:15;27.33;;;13.75;;
70247;SDS011;57641;51.416;5.506;2022-09-24T09:38:34;22.20;;;11.90;;
70247;SDS011;57641;51.416;5.506;2022-09-24T09:43:35;22.45;;;13.05;;
70247;SDS011;57641;51.416;5.506;2022-09-24T09:46:09;20.88;;;12.13;;
70247;SDS011;57641;51.416;5.506;2022-09-24T09:48:44;25.40;;;13.50;;
70247;SDS011;57641;51.416;5.506;2022-09-24T09:51:19;26.80;;;13.38;;
70247;SDS011;57641;51.416;5.506;2022-09-24T09:53:59;25.58;;;13.00;;
70247;SDS011;57641;51.416;5.506;2022-09-24T09:56:27;21.38;;;12.18;;
70247;SDS011;57641;51.416;5.506;2022-09-24T09:59:00;22.90;;;13.43;;
70247;SDS011;57641;51.416;5.506;2022-09-24T10:01:32;21.38;;;11.27;;
70247;SDS011;57641;51.416;5.506;2022-09-24T10:04:00;22.40;;;12.15;;
70247;SDS011;57641;51.416;5.506;2022-09-24T10:06:32;24.80;;;12.93;;
70247;SDS011;57641;51.416;5.506;2022-09-24T10:09:16;22.02;;;12.23;;
70247;SDS011;57641;51.416;5.506;2022-09-24T10:11:46;20.17;;;11.65;;
70247;SDS011;57641;51.416;5.506;2022-09-24T10:14:13;19.20;;;11.40;;
70247;SDS011;57641;51.416;5.506;2022-09-24T10:16:42;21.58;;;12.40;;
70247;SDS011;57641;51.416;5.506;2022-09-24T10:19:16;23.33;;;12.25;;
70247;SDS011;57641;51.416;5.506;2022-09-24T10:21:49;21.92;;;12.50;;
70247;SDS011;57641;51.416;5.506;2022-09-24T10:24:20;20.25;;;11.55;;
70247;SDS011;57641;51.416;5.506;2022-09-24T10:26:49;20.52;;;11.50;;
70247;SDS011;57641;51.416;5.506;2022-09-24T10:29:16;19.08;;;11.00;;
70247;SDS011;57641;51.416;5.506;2022-09-24T10:32:03;19.27;;;11.02;;
70247;SDS011;57641;51.416;5.506;2022-09-24T10:34:30;15.95;;;9.40;;
70247;SDS011;57641;51.416;5.506;2022-09-24T10:37:00;21.17;;;11.50;;
70247;SDS011;57641;51.416;5.506;2022-09-24T10:39:27;18.50;;;10.70;;
70247;SDS011;57641;51.416;5.506;2022-09-24T10:41:54;17.25;;;9.73;;
70247;SDS011;57641;51.416;5.506;2022-09-24T10:44:21;20.13;;;11.55;;
70247;SDS011;57641;51.416;5.506;2022-09-24T10:55:43;16.52;;;10.30;;
70247;SDS011;57641;51.416;5.506;2022-09-24T11:00:50;16.23;;;10.45;;
70247;SDS011;57641;51.416;5.506;2022-09-24T11:06:42;15.13;;;9.63;;
70247;SDS011;57641;51.416;5.506;2022-09-24T11:09:26;20.35;;;11.32;;
70247;SDS011;57641;51.416;5.506;2022-09-24T11:19:42;19.10;;;11.27;;
70247;SDS011;57641;51.416;5.506;2022-09-24T11:30:55;17.52;;;10.13;;
70247;SDS011;57641;51.416;5.506;2022-09-24T11:41:58;16.48;;;11.38;;
70247;SDS011;57641;51.416;5.506;2022-09-24T11:52:52;20.08;;;9.95;;
70247;SDS011;57641;51.416;5.506;2022-09-24T11:55:25;15.27;;;10.38;;
70247;SDS011;57641;51.416;5.506;2022-09-24T12:00:41;13.75;;;9.10;;
70247;SDS011;57641;51.416;5.506;2022-09-24T12:03:17;13.88;;;9.10;;
70247;SDS011;57641;51.416;5.506;2022-09-24T12:05:48;15.98;;;8.98;;
70247;SDS011;57641;51.416;5.506;2022-09-24T12:08:25;15.90;;;8.75;;
70247;SDS011;57641;51.416;5.506;2022-09-24T12:16:12;12.35;;;7.88;;
70247;SDS011;57641;51.416;5.506;2022-09-24T12:18:45;14.15;;;8.00;;
70247;SDS011;57641;51.416;5.506;2022-09-24T12:21:20;12.13;;;6.60;;
70247;SDS011;57641;51.416;5.506;2022-09-24T12:23:52;11.32;;;7.07;;
70247;SDS011;57641;51.416;5.506;2022-09-24T12:26:22;11.27;;;7.18;;
70247;SDS011;57641;51.416;5.506;2022-09-24T12:28:52;9.10;;;5.93;;
70247;SDS011;57641;51.416;5.506;2022-09-24T12:32:06;13.23;;;6.90;;
70247;SDS011;57641;51.416;5.506;2022-09-24T12:37:23;11.95;;;6.65;;
70247;SDS011;57641;51.416;5.506;2022-09-24T12:42:49;10.85;;;6.45;;
70247;SDS011;57641;51.416;5.506;2022-09-24T12:45:19;10.25;;;7.00;;
70247;SDS011;57641;51.416;5.506;2022-09-24T12:47:51;13.18;;;7.30;;
70247;SDS011;57641;51.416;5.506;2022-09-24T12:50:30;11.38;;;6.70;;
70247;SDS011;57641;51.416;5.506;2022-09-24T12:52:59;12.32;;;6.97;;
70247;SDS011;57641;51.416;5.506;2022-09-24T12:55:29;8.98;;;5.80;;
70247;SDS011;57641;51.416;5.506;2022-09-24T12:57:59;9.75;;;5.50;;
70247;SDS011;57641;51.416;5.506;2022-09-24T13:02:58;11.40;;;6.50;;
70247;SDS011;57641;51.416;5.506;2022-09-24T13:10:32;11.10;;;5.85;;
70247;SDS011;57641;51.416;5.506;2022-09-24T13:12:59;10.18;;;5.78;;
70247;SDS011;57641;51.416;5.506;2022-09-24T13:15:39;9.05;;;5.97;;
70247;SDS011;57641;51.416;5.506;2022-09-24T13:20:38;9.35;;;5.93;;
70247;SDS011;57641;51.416;5.506;2022-09-24T13:25:57;8.98;;;5.93;;
70247;SDS011;57641;51.416;5.506;2022-09-24T13:28:28;8.60;;;6.00;;
70247;SDS011;57641;51.416;5.506;2022-09-24T13:31:01;9.63;;;5.72;;
70247;SDS011;57641;51.416;5.506;2022-09-24T13:33:42;10.02;;;6.53;;
70247;SDS011;57641;51.416;5.506;2022-09-24T13:36:19;9.73;;;5.63;;
70247;SDS011;57641;51.416;5.506;2022-09-24T13:41:49;8.90;;;6.15;;
70247;SDS011;57641;51.416;5.506;2022-09-24T13:44:40;11.15;;;6.30;;
70247;SDS011;57641;51.416;5.506;2022-09-24T13:47:13;10.93;;;6.25;;
70247;SDS011;57641;51.416;5.506;2022-09-24T13:49:46;9.07;;;6.18;;
70247;SDS011;57641;51.416;5.506;2022-09-24T13:52:31;9.77;;;5.68;;
70247;SDS011;57641;51.416;5.506;2022-09-24T13:55:01;10.55;;;5.55;;
70247;SDS011;57641;51.416;5.506;2022-09-24T13:57:43;10.45;;;5.57;;
70247;SDS011;57641;51.416;5.506;2022-09-24T14:02:35;12.00;;;6.07;;
70247;SDS011;57641;51.416;5.506;2022-09-24T14:05:02;8.77;;;5.30;;
70247;SDS011;57641;51.416;5.506;2022-09-24T14:07:40;10.02;;;6.28;;
70247;SDS011;57641;51.416;5.506;2022-09-24T14:10:10;11.07;;;6.65;;
70247;SDS011;57641;51.416;5.506;2022-09-24T14:12:37;11.40;;;6.18;;
70247;SDS011;57641;51.416;5.506;2022-09-24T14:15:08;9.32;;;5.85;;
70247;SDS011;57641;51.416;5.506;2022-09-24T14:17:39;9.23;;;4.82;;
70247;SDS011;57641;51.416;5.506;2022-09-24T14:20:05;11.27;;;6.22;;
70247;SDS011;57641;51.416;5.506;2022-09-24T14:22:33;9.38;;;5.97;;
70247;SDS011;57641;51.416;5.506;2022-09-24T14:25:05;8.73;;;5.22;;
70247;SDS011;57641;51.416;5.506;2022-09-24T14:27:35;10.05;;;5.20;;
70247;SDS011;57641;51.416;5.506;2022-09-24T14:30:06;7.57;;;4.90;;
70247;SDS011;57641;51.416;5.506;2022-09-24T14:32:41;8.93;;;5.53;;
70247;SDS011;57641;51.416;5.506;2022-09-24T14:35:17;11.35;;;5.70;;
70247;SDS011;57641;51.416;5.506;2022-09-24T14:37:53;10.27;;;6.30;;
70247;SDS011;57641;51.416;5.506;2022-09-24T14:40:22;9.93;;;6.30;;
70247;SDS011;57641;51.416;5.506;2022-09-24T14:45:19;11.68;;;6.47;;
70247;SDS011;57641;51.416;5.506;2022-09-24T14:47:47;7.63;;;5.53;;
70247;SDS011;57641;51.416;5.506;2022-09-24T14:50:49;7.63;;;5.45;;
70247;SDS011;57641;51.416;5.506;2022-09-24T14:56:19;9.60;;;5.82;;
70247;SDS011;57641;51.416;5.506;2022-09-24T14:58:51;9.05;;;5.97;;
70247;SDS011;57641;51.416;5.506;2022-09-24T15:01:17;10.70;;;6.13;;
70247;SDS011;57641;51.416;5.506;2022-09-24T15:03:56;9.20;;;6.00;;
70247;SDS011;57641;51.416;5.506;2022-09-24T15:09:02;10.40;;;5.60;;
70247;SDS011;57641;51.416;5.506;2022-09-24T15:11:44;9.63;;;5.93;;
70247;SDS011;57641;51.416;5.506;2022-09-24T15:16:42;11.80;;;6.45;;
70247;SDS011;57641;51.416;5.506;2022-09-24T15:19:21;11.57;;;6.40;;
70247;SDS011;57641;51.416;5.506;2022-09-24T15:21:56;10.68;;;5.97;;
70247;SDS011;57641;51.416;5.506;2022-09-24T15:24:22;9.05;;;6.20;;
70247;SDS011;57641;51.416;5.506;2022-09-24T15:27:05;7.85;;;5.32;;
70247;SDS011;57641;51.416;5.506;2022-09-24T15:29:48;8.25;;;5.75;;
70247;SDS011;57641;51.416;5.506;2022-09-24T15:32:15;12.57;;;5.93;;
70247;SDS011;57641;51.416;5.506;2022-09-24T15:34:42;9.32;;;5.65;;
70247;SDS011;57641;51.416;5.506;2022-09-24T15:37:10;8.55;;;5.78;;
70247;SDS011;57641;51.416;5.506;2022-09-24T15:39:38;9.57;;;5.45;;
70247;SDS011;57641;51.416;5.506;2022-09-24T15:42:04;10.32;;;5.97;;
70247;SDS011;57641;51.416;5.506;2022-09-24T15:44:30;8.77;;;5.63;;
70247;SDS011;57641;51.416;5.506;2022-09-24T15:46:55;10.23;;;6.00;;
70247;SDS011;57641;51.416;5.506;2022-09-24T15:49:21;12.18;;;5.90;;
70247;SDS011;57641;51.416;5.506;2022-09-24T15:54:13;12.55;;;6.45;;
70247;SDS011;57641;51.416;5.506;2022-09-24T15:56:38;10.10;;;6.20;;
70247;SDS011;57641;51.416;5.506;2022-09-24T15:59:11;9.65;;;6.25;;
70247;SDS011;57641;51.416;5.506;2022-09-24T16:01:38;9.60;;;5.63;;
70247;SDS011;57641;51.416;5.506;2022-09-24T16:04:04;11.30;;;7.00;;
70247;SDS011;57641;51.416;5.506;2022-09-24T16:06:30;13.02;;;7.03;;
70247;SDS011;57641;51.416;5.506;2022-09-24T16:08:55;9.45;;;6.38;;
70247;SDS011;57641;51.416;5.506;2022-09-24T16:11:21;11.18;;;7.00;;
70247;SDS011;57641;51.416;5.506;2022-09-24T16:13:48;14.73;;;8.02;;
70247;SDS011;57641;51.416;5.506;2022-09-24T16:16:14;13.48;;;6.85;;
70247;SDS011;57641;51.416;5.506;2022-09-24T16:18:39;11.77;;;7.28;;
70247;SDS011;57641;51.416;5.506;2022-09-24T16:21:08;13.38;;;7.90;;
70247;SDS011;57641;51.416;5.506;2022-09-24T16:23:33;12.02;;;7.80;;
70247;SDS011;57641;51.416;5.506;2022-09-24T16:25:59;12.23;;;8.23;;
70247;SDS011;57641;51.416;5.506;2022-09-24T16:28:25;11.52;;;7.95;;
70247;SDS011;57641;51.416;5.506;2022-09-24T16:30:52;15.35;;;8.30;;
70247;SDS011;57641;51.416;5.506;2022-09-24T16:33:18;12.77;;;7.45;;
70247;SDS011;57641;51.416;5.506;2022-09-24T16:35:43;14.38;;;8.23;;
70247;SDS011;57641;51.416;5.506;2022-09-24T16:38:09;12.27;;;7.80;;
70247;SDS011;57641;51.416;5.506;2022-09-24T16:40:36;14.85;;;8.20;;
70247;SDS011;57641;51.416;5.506;2022-09-24T16:43:01;13.13;;;7.30;;